Time;durP1;ratioP1;P1;durP2;ratioP2;P2;SDS_P1;SDS_P2;PMS_P1;PMS_P2;Temp;Humidity;BMP_temperature;BMP_pressure;BME280_temperature;BME280_humidity;BME280_pressure;Samples;Min_cycle;Max_cycle;Signal;HPM_P1;HPM_P2
2023/01/16 00:00:09;;;;;;;3.40;1.77;;;;;;;;;;5083525;28;20028;-49
2023/01/16 00:02:35;;;;;;;2.70;1.55;;;;;;;;;;5063755;28;20023;-49
2023/01/16 00:05:01;;;;;;;2.70;1.40;;;;;;;;;;5082987;28;20032;-44
2023/01/16 00:07:27;;;;;;;2.83;1.70;;;;;;;;;;5083025;28;20079;-44
2023/01/16 00:09:53;;;;;;;4.15;2.17;;;;;;;;;;5083781;28;20070;-45
2023/01/16 00:12:19;;;;;;;3.75;2.30;;;;;;;;;;5083429;28;20066;-46
2023/01/16 00:14:44;;;;;;;4.30;2.35;;;;;;;;;;5084461;28;20418;-45
2023/01/16 00:17:10;;;;;;;2.83;1.85;;;;;;;;;;5083864;28;20028;-45
2023/01/16 00:19:36;;;;;;;2.85;1.83;;;;;;;;;;5082389;28;20570;-45
2023/01/16 00:22:03;;;;;;;2.75;1.98;;;;;;;;;;5083720;28;20256;-46
2023/01/16 00:24:29;;;;;;;4.57;2.17;;;;;;;;;;5083515;28;20142;-46
2023/01/16 00:26:55;;;;;;;3.15;1.80;;;;;;;;;;5083728;28;20020;-45
2023/01/16 00:29:21;;;;;;;2.78;1.50;;;;;;;;;;5083332;28;20024;-45
2023/01/16 00:31:47;;;;;;;2.22;1.48;;;;;;;;;;5084067;28;20028;-45
2023/01/16 00:34:14;;;;;;;2.10;1.08;;;;;;;;;;5082944;28;20279;-45
2023/01/16 00:36:40;;;;;;;2.45;1.40;;;;;;;;;;5083951;28;20020;-46
2023/01/16 00:39:06;;;;;;;1.75;1.35;;;;;;;;;;5083126;28;20452;-46
2023/01/16 00:41:32;;;;;;;2.83;1.42;;;;;;;;;;5083603;28;20032;-45
2023/01/16 00:43:59;;;;;;;2.55;1.67;;;;;;;;;;5083853;28;20024;-45
2023/01/16 00:46:25;;;;;;;3.03;1.63;;;;;;;;;;5084158;28;20095;-46
2023/01/16 00:48:52;;;;;;;2.10;1.58;;;;;;;;;;5083816;28;20028;-45
2023/01/16 00:51:17;;;;;;;2.80;1.77;;;;;;;;;;5088382;28;20028;-46
2023/01/16 00:53:43;;;;;;;4.22;2.10;;;;;;;;;;5085927;28;20050;-47
2023/01/16 00:56:09;;;;;;;3.78;2.03;;;;;;;;;;5087210;28;20047;-45
2023/01/16 00:58:36;;;;;;;5.35;3.00;;;;;;;;;;5088027;28;20063;-47
2023/01/16 01:01:02;;;;;;;5.28;2.70;;;;;;;;;;5086978;28;20098;-45
2023/01/16 01:03:28;;;;;;;4.50;2.55;;;;;;;;;;5087558;28;20044;-46
2023/01/16 06:13:28;;;;;;;5.47;1.27;;;;;;;;;;5067532;28;20048;-43
2023/01/16 06:15:54;;;;;;;3.70;1.35;;;;;;;;;;5068303;28;20109;-44
2023/01/16 06:18:20;;;;;;;5.63;1.40;;;;;;;;;;5068350;28;20605;-44
2023/01/16 06:20:46;;;;;;;3.20;1.10;;;;;;;;;;5073944;28;20447;-45
2023/01/16 06:23:12;;;;;;;2.95;1.10;;;;;;;;;;5088182;28;20012;-45
2023/01/16 06:25:38;;;;;;;4.95;0.98;;;;;;;;;;5087777;28;20506;-45
2023/01/16 06:28:04;;;;;;;2.15;1.00;;;;;;;;;;5088091;28;20142;-45
2023/01/16 06:30:31;;;;;;;2.45;0.70;;;;;;;;;;5087849;28;20525;-44
2023/01/16 06:32:57;;;;;;;6.15;1.10;;;;;;;;;;5087891;28;20020;-44
2023/01/16 06:35:23;;;;;;;2.25;1.00;;;;;;;;;;5087955;28;20028;-43
2023/01/16 06:37:50;;;;;;;3.80;1.05;;;;;;;;;;5087889;28;20103;-45
2023/01/16 06:40:18;;;;;;;5.47;1.08;;;;;;;;;;5087942;28;20780;-47
2023/01/16 06:42:44;;;;;;;3.72;1.13;;;;;;;;;;5087770;28;20383;-43
2023/01/16 06:45:10;;;;;;;2.88;1.00;;;;;;;;;;5087274;28;20042;-44
2023/01/16 06:47:37;;;;;;;3.42;1.00;;;;;;;;;;5086836;28;20411;-44
2023/01/16 06:50:03;;;;;;;3.58;1.25;;;;;;;;;;5086477;28;20036;-46
2023/01/16 06:52:30;;;;;;;2.03;0.98;;;;;;;;;;5087516;28;20502;-45
2023/01/16 06:54:56;;;;;;;8.82;1.30;;;;;;;;;;5087553;28;20028;-45
2023/01/16 06:57:23;;;;;;;4.35;1.25;;;;;;;;;;5087256;28;20024;-45
2023/01/16 06:59:50;;;;;;;2.40;1.20;;;;;;;;;;5086861;28;20410;-44
2023/01/16 07:02:16;;;;;;;2.08;1.08;;;;;;;;;;5087931;28;20047;-44
2023/01/16 07:04:44;;;;;;;3.45;1.33;;;;;;;;;;5088654;28;20055;-45
2023/01/16 07:07:10;;;;;;;5.95;1.17;;;;;;;;;;5088239;28;20028;-43
2023/01/16 07:09:37;;;;;;;2.50;1.10;;;;;;;;;;5087796;28;20308;-45
2023/01/16 07:12:03;;;;;;;4.13;1.10;;;;;;;;;;5088481;28;20503;-44
2023/01/16 07:22:45;;;;;;;2.92;1.33;;;;;;;;;;5088008;28;20063;-43
2023/01/16 07:25:22;;;;;;;6.57;1.58;;;;;;;;;;5088471;28;20017;-44
2023/01/16 07:27:49;;;;;;;3.80;1.33;;;;;;;;;;5088744;28;20047;-44
2023/01/16 07:30:19;;;;;;;5.82;1.58;;;;;;;;;;5086185;28;20789;-44
2023/01/16 07:32:46;;;;;;;4.25;1.38;;;;;;;;;;5085343;28;20031;-44
2023/01/16 07:35:12;;;;;;;3.05;0.95;;;;;;;;;;5088616;28;20024;-45
2023/01/16 07:37:39;;;;;;;3.38;1.27;;;;;;;;;;5086516;28;20046;-45
2023/01/16 07:40:05;;;;;;;3.22;1.40;;;;;;;;;;5088425;28;20053;-45
2023/01/16 07:42:31;;;;;;;5.50;1.13;;;;;;;;;;5088290;28;20038;-46
2023/01/16 07:44:57;;;;;;;5.53;1.48;;;;;;;;;;5088276;28;20035;-45
2023/01/16 07:47:23;;;;;;;5.35;1.25;;;;;;;;;;5087582;28;20065;-44
2023/01/16 07:49:49;;;;;;;6.82;1.50;;;;;;;;;;5086819;28;20525;-44
2023/01/16 07:52:17;;;;;;;7.22;2.00;;;;;;;;;;5084736;28;20032;-44
2023/01/16 07:54:43;;;;;;;1.45;1.00;;;;;;;;;;5084086;28;20020;-46
2023/01/16 07:57:10;;;;;;;2.92;1.05;;;;;;;;;;5085877;28;20027;-46
2023/01/16 07:59:36;;;;;;;5.05;1.17;;;;;;;;;;5088762;28;20042;-44
2023/01/16 08:02:02;;;;;;;3.72;1.27;;;;;;;;;;5091649;28;20056;-45
2023/01/16 08:04:28;;;;;;;3.85;1.50;;;;;;;;;;5112799;28;20098;-46
2023/01/16 08:06:54;;;;;;;4.30;1.30;;;;;;;;;;5092759;28;20028;-44
2023/01/16 08:09:20;;;;;;;5.40;1.25;;;;;;;;;;5082259;28;20106;-46
2023/01/16 08:11:46;;;;;;;4.85;1.25;;;;;;;;;;5082866;28;20035;-46
2023/01/16 08:14:12;;;;;;;5.68;1.27;;;;;;;;;;5088660;28;20036;-46
2023/01/16 08:16:39;;;;;;;5.95;1.30;;;;;;;;;;5071683;28;20036;-46
2023/01/16 08:19:05;;;;;;;3.50;0.98;;;;;;;;;;5088834;28;20032;-47
2023/01/16 08:21:31;;;;;;;3.20;1.15;;;;;;;;;;5078553;28;20439;-44
2023/01/16 08:23:57;;;;;;;3.67;1.33;;;;;;;;;;5088765;28;20537;-46
2023/01/16 08:26:23;;;;;;;7.72;1.60;;;;;;;;;;5106953;28;20031;-46
2023/01/16 08:28:49;;;;;;;2.17;1.00;;;;;;;;;;5087350;28;20098;-44
2023/01/16 08:31:17;;;;;;;3.83;1.08;;;;;;;;;;5083914;28;20061;-47
2023/01/16 08:33:46;;;;;;;2.55;0.85;;;;;;;;;;5088433;28;20032;-45
2023/01/16 08:36:12;;;;;;;2.08;0.98;;;;;;;;;;5086858;28;20073;-45
2023/01/16 08:38:39;;;;;;;2.90;1.00;;;;;;;;;;5086939;28;20024;-44
2023/01/16 08:51:21;;;;;;;3.83;1.00;;;;;;;;;;5090541;28;20475;-45
2023/01/16 08:52:05;;;;;;;3.95;1.20;;;;;;;;;;5089402;28;20047;-45
2023/01/16 08:54:31;;;;;;;2.72;1.00;;;;;;;;;;5088509;28;20158;-48
2023/01/16 08:56:57;;;;;;;2.85;1.10;;;;;;;;;;5088177;28;20123;-46
2023/01/16 08:59:24;;;;;;;5.65;1.33;;;;;;;;;;5087864;28;20024;-49
2023/01/16 09:01:51;;;;;;;3.97;1.48;;;;;;;;;;5088047;28;20023;-46
2023/01/16 09:04:17;;;;;;;3.05;1.20;;;;;;;;;;5087967;28;20506;-45
2023/01/16 09:06:43;;;;;;;4.65;1.20;;;;;;;;;;5088423;28;20021;-46
2023/01/16 09:09:09;;;;;;;3.47;1.08;;;;;;;;;;5087864;28;20016;-46
2023/01/16 09:14:20;;;;;;;6.95;1.80;;;;;;;;;;5087945;28;20470;-45
2023/01/16 09:16:46;;;;;;;5.53;1.45;;;;;;;;;;5088259;28;20032;-45
2023/01/16 09:19:12;;;;;;;2.45;1.15;;;;;;;;;;5087633;28;20049;-45
2023/01/16 09:21:38;;;;;;;7.25;1.88;;;;;;;;;;5087977;28;20035;-44
2023/01/16 09:24:04;;;;;;;3.65;1.02;;;;;;;;;;5088183;28;20066;-44
2023/01/16 09:26:30;;;;;;;6.20;1.23;;;;;;;;;;5087575;28;20032;-46
2023/01/16 09:28:56;;;;;;;5.13;1.35;;;;;;;;;;5087662;28;20094;-44
2023/01/16 09:31:23;;;;;;;5.05;1.30;;;;;;;;;;5087693;28;20035;-44
2023/01/16 09:33:51;;;;;;;3.67;1.30;;;;;;;;;;5087419;28;20024;-46
2023/01/16 09:36:17;;;;;;;3.78;1.20;;;;;;;;;;5087514;28;20110;-45
2023/01/16 09:38:43;;;;;;;6.43;1.58;;;;;;;;;;5087238;28;20024;-45
2023/01/16 09:43:35;;;;;;;6.07;1.25;;;;;;;;;;5087284;28;20039;-44
2023/01/16 09:44:00;;;;;;;4.22;0.98;;;;;;;;;;5086732;28;20032;-48
2023/01/16 09:46:28;;;;;;;3.25;1.15;;;;;;;;;;5087365;28;20027;-46
2023/01/16 09:49:00;;;;;;;3.25;1.10;;;;;;;;;;5087092;28;20027;-46
2023/01/16 09:51:37;;;;;;;3.28;1.35;;;;;;;;;;5087193;28;20537;-46
2023/01/16 09:59:42;;;;;;;5.63;2.03;;;;;;;;;;5087278;28;20088;-45
2023/01/16 10:02:24;;;;;;;3.28;0.75;;;;;;;;;;5086703;28;20465;-45
2023/01/16 10:04:51;;;;;;;4.18;1.33;;;;;;;;;;5086484;28;20027;-47
2023/01/16 10:07:18;;;;;;;3.92;1.08;;;;;;;;;;5086554;28;20039;-45
2023/01/16 10:09:55;;;;;;;3.55;0.98;;;;;;;;;;5086303;28;20016;-48
2023/01/16 10:12:22;;;;;;;4.28;1.00;;;;;;;;;;5087991;28;20075;-45
2023/01/16 10:14:58;;;;;;;3.28;1.13;;;;;;;;;;5088562;28;20047;-46
2023/01/16 10:17:24;;;;;;;5.72;1.05;;;;;;;;;;5087574;28;20486;-45
2023/01/16 10:20:03;;;;;;;3.70;1.00;;;;;;;;;;5084649;28;20027;-46
2023/01/16 10:22:43;;;;;;;2.47;0.82;;;;;;;;;;5079762;28;20067;-45
2023/01/16 10:25:09;;;;;;;3.63;0.95;;;;;;;;;;5088873;28;20382;-46
2023/01/16 10:27:45;;;;;;;2.15;0.90;;;;;;;;;;5088435;28;20101;-45
2023/01/16 10:30:18;;;;;;;4.55;1.20;;;;;;;;;;5080929;28;20431;-44
2023/01/16 10:32:47;;;;;;;4.70;1.20;;;;;;;;;;5084786;28;20020;-46
2023/01/16 10:35:23;;;;;;;2.72;1.17;;;;;;;;;;5073545;28;20050;-44
2023/01/16 10:37:50;;;;;;;4.63;0.90;;;;;;;;;;5068287;28;20032;-49
2023/01/16 10:40:19;;;;;;;3.58;1.17;;;;;;;;;;5069118;28;20040;-48
2023/01/16 10:51:04;;;;;;;;;;;;;;;;;;5088908;28;20043;-47
2023/01/16 10:53:31;;;;;;;4.40;1.17;;;;;;;;;;5088560;28;20275;-46
2023/01/16 10:55:57;;;;;;;2.53;1.10;;;;;;;;;;5078923;28;20036;-45
2023/01/16 10:58:35;;;;;;;3.35;0.80;;;;;;;;;;5084240;28;20039;-44
2023/01/16 11:01:04;;;;;;;4.22;1.30;;;;;;;;;;5088152;28;20024;-46
2023/01/16 11:03:34;;;;;;;3.00;0.90;;;;;;;;;;5088149;28;20181;-47
2023/01/16 11:06:06;;;;;;;2.63;1.23;;;;;;;;;;5086463;28;20456;-46
2023/01/16 11:08:34;;;;;;;4.25;1.30;;;;;;;;;;5086147;28;20038;-46
2023/01/16 11:11:01;;;;;;;3.30;1.27;;;;;;;;;;5086663;28;20496;-48
2023/01/16 11:18:57;;;;;;;;;;;;;;;;;;5087160;28;20073;-45
2023/01/16 11:21:30;;;;;;;8.40;1.63;;;;;;;;;;5086779;28;19908;-46
2023/01/16 11:24:17;;;;;;;2.67;1.17;;;;;;;;;;5086805;28;20076;-44
2023/01/16 11:26:46;;;;;;;3.55;1.15;;;;;;;;;;5086729;28;20032;-46
2023/01/16 11:29:16;;;;;;;2.60;1.00;;;;;;;;;;5086556;28;20050;-45
2023/01/16 11:31:42;;;;;;;3.67;1.20;;;;;;;;;;5086013;28;20032;-46
2023/01/16 11:34:14;;;;;;;3.08;1.30;;;;;;;;;;5085855;28;20111;-47
2023/01/16 11:36:41;;;;;;;4.53;1.58;;;;;;;;;;5086763;28;20276;-45
2023/01/16 11:39:07;;;;;;;3.75;1.27;;;;;;;;;;5086477;28;20032;-44
2023/01/16 11:41:35;;;;;;;4.72;1.23;;;;;;;;;;5076394;28;20032;-47
2023/01/16 11:46:57;;;;;;;4.15;1.33;;;;;;;;;;5086861;28;20519;-46
2023/01/16 11:49:28;;;;;;;3.85;1.20;;;;;;;;;;5083146;28;20025;-48
2023/01/16 11:51:55;;;;;;;3.08;1.10;;;;;;;;;;5083573;28;20028;-47
2023/01/16 11:54:26;;;;;;;2.90;1.42;;;;;;;;;;5084454;28;20024;-45
2023/01/16 11:56:52;;;;;;;2.33;1.25;;;;;;;;;;5084980;28;20059;-45
2023/01/16 11:59:32;;;;;;;3.50;1.27;;;;;;;;;;5084657;28;20035;-46
2023/01/16 12:02:16;;;;;;;1.45;0.93;;;;;;;;;;5065952;28;20082;-45
2023/01/16 12:05:53;;;;;;;3.40;1.30;;;;;;;;;;5065130;28;20048;-47
2023/01/16 12:07:40;;;;;;;3.40;1.10;;;;;;;;;;5071184;28;20402;-47
2023/01/16 12:10:15;;;;;;;1.35;0.90;;;;;;;;;;5076434;28;20024;-47
2023/01/16 12:15:52;;;;;;;1.85;1.13;;;;;;;;;;5077325;28;20166;-45
2023/01/16 12:18:32;;;;;;;2.65;1.55;;;;;;;;;;5087365;28;20067;-45
2023/01/16 12:21:02;;;;;;;7.82;3.50;;;;;;;;;;5087213;28;20033;-46
2023/01/16 12:23:33;;;;;;;2.28;1.52;;;;;;;;;;5087299;28;20035;-45
2023/01/16 12:26:26;;;;;;;3.22;1.33;;;;;;;;;;5086029;28;20032;-47
2023/01/16 12:28:57;;;;;;;2.35;1.52;;;;;;;;;;5078711;28;20032;-45
2023/01/16 12:31:46;;;;;;;3.50;1.38;;;;;;;;;;5085794;28;20107;-46
2023/01/16 12:34:17;;;;;;;3.88;1.52;;;;;;;;;;5085980;28;20016;-48
2023/01/16 12:36:56;;;;;;;3.03;1.40;;;;;;;;;;5086221;28;20392;-47
2023/01/16 12:39:42;;;;;;;3.22;1.48;;;;;;;;;;5082026;28;20095;-48
2023/01/16 12:45:04;;;;;;;2.97;1.27;;;;;;;;;;5086523;28;20074;-45
2023/01/16 12:47:30;;;;;;;3.22;1.40;;;;;;;;;;5090974;28;20028;-46
2023/01/16 12:50:16;;;;;;;3.00;1.30;;;;;;;;;;5090789;28;20020;-45
2023/01/16 12:52:42;;;;;;;3.30;1.73;;;;;;;;;;5089208;28;20020;-48
2023/01/16 12:55:20;;;;;;;3.97;1.48;;;;;;;;;;5090166;28;20415;-45
2023/01/16 12:58:05;;;;;;;4.00;1.55;;;;;;;;;;5086509;28;20032;-45
2023/01/16 13:00:39;;;;;;;3.70;1.58;;;;;;;;;;5090147;28;20055;-46
2023/01/16 13:03:27;;;;;;;4.22;1.77;;;;;;;;;;5076666;28;20082;-46
2023/01/16 13:05:55;;;;;;;5.07;1.88;;;;;;;;;;5087150;28;20475;-45
2023/01/16 13:08:25;;;;;;;2.08;1.20;;;;;;;;;;5091492;28;20410;-46
2023/01/16 13:13:59;;;;;;;3.22;1.17;;;;;;;;;;5085872;28;20110;-46
2023/01/16 13:16:28;;;;;;;4.70;1.40;;;;;;;;;;5071350;28;20033;-47
2023/01/16 13:18:58;;;;;;;2.22;1.15;;;;;;;;;;5088886;28;20038;-45
2023/01/16 13:21:29;;;;;;;1.95;1.20;;;;;;;;;;5070676;28;20025;-46
2023/01/16 13:23:58;;;;;;;3.95;1.42;;;;;;;;;;5073588;28;20035;-46
2023/01/16 13:26:26;;;;;;;3.13;1.38;;;;;;;;;;5087147;28;20451;-46
2023/01/16 13:28:52;;;;;;;2.95;1.25;;;;;;;;;;5089976;28;20111;-49
2023/01/16 13:31:24;;;;;;;2.67;1.05;;;;;;;;;;5089253;28;20111;-45
2023/01/16 13:33:53;;;;;;;2.50;1.88;;;;;;;;;;5090032;28;20052;-46
2023/01/16 13:36:22;;;;;;;2.17;1.17;;;;;;;;;;5089718;28;20023;-45
2023/01/16 13:39:06;;;;;;;2.97;1.38;;;;;;;;;;5089095;28;20024;-47
2023/01/16 13:41:32;;;;;;;;;;;;;;;;;;5089580;28;20025;-45
2023/01/16 13:47:24;;;;;;;1.75;1.30;;;;;;;;;;5082064;28;20145;-46
2023/01/16 13:49:54;;;;;;;3.47;1.20;;;;;;;;;;5075332;28;20040;-45
2023/01/16 13:52:26;;;;;;;3.83;0.88;;;;;;;;;;5087640;28;20032;-47
2023/01/16 13:54:54;;;;;;;2.67;1.17;;;;;;;;;;5084918;28;20036;-46
2023/01/16 13:57:22;;;;;;;1.23;0.90;;;;;;;;;;5085325;28;20162;-46
2023/01/16 13:59:51;;;;;;;1.45;0.70;;;;;;;;;;5084482;28;20035;-47
2023/01/16 14:02:25;;;;;;;2.42;0.82;;;;;;;;;;5086646;28;20509;-45
2023/01/16 14:05:03;;;;;;;1.88;0.60;;;;;;;;;;5089225;28;20027;-46
2023/01/16 14:10:40;;;;;;;2.03;1.45;;;;;;;;;;5089934;28;20477;-47
2023/01/16 14:13:21;;;;;;;1.35;1.13;;;;;;;;;;5088844;28;20024;-47
2023/01/16 14:16:31;;;;;;;4.63;2.40;;;;;;;;;;5086024;28;20119;-45
2023/01/16 14:18:59;;;;;;;3.33;1.67;;;;;;;;;;5042654;28;20411;-45
2023/01/16 14:21:38;;;;;;;3.85;2.42;;;;;;;;;;5088452;28;20016;-48
2023/01/16 14:24:23;;;;;;;3.80;2.47;;;;;;;;;;5073502;28;20510;-45
2023/01/16 14:26:49;;;;;;;6.10;1.95;;;;;;;;;;5087508;28;20036;-46
2023/01/16 14:29:32;;;;;;;2.08;1.40;;;;;;;;;;5077504;28;20490;-48
2023/01/16 14:32:02;;;;;;;2.50;1.87;;;;;;;;;;5070740;28;20392;-47
2023/01/16 14:34:40;;;;;;;4.22;1.38;;;;;;;;;;5085926;28;20410;-45
2023/01/16 14:37:11;;;;;;;2.05;1.42;;;;;;;;;;5085355;28;20122;-46
2023/01/16 14:39:39;;;;;;;2.85;1.48;;;;;;;;;;5085894;28;20410;-45
2023/01/16 14:57:05;;;;;;;7.68;4.13;;;;;;;;;;5067832;28;20480;-45
2023/01/16 14:59:35;;;;;;;5.70;2.50;;;;;;;;;;5084003;28;20024;-46
2023/01/16 15:02:19;;;;;;;5.03;2.53;;;;;;;;;;5071737;28;20103;-47
2023/01/16 15:04:48;;;;;;;4.00;2.37;;;;;;;;;;5068736;28;20036;-46
2023/01/16 15:07:18;;;;;;;6.43;2.25;;;;;;;;;;5066302;28;20032;-45
2023/01/16 15:09:44;;;;;;;6.88;2.53;;;;;;;;;;5086654;28;20521;-45
2023/01/16 15:12:12;;;;;;;5.28;2.92;;;;;;;;;;5086692;28;20032;-45
2023/01/16 15:14:38;;;;;;;4.32;2.33;;;;;;;;;;5086821;28;20032;-45
2023/01/16 15:22:40;;;;;;;5.03;2.42;;;;;;;;;;5085748;28;19931;-44
2023/01/16 15:25:12;;;;;;;4.15;2.30;;;;;;;;;;5084022;28;20071;-45
2023/01/16 15:27:38;;;;;;;3.60;2.30;;;;;;;;;;5083431;28;20024;-46
2023/01/16 15:30:06;;;;;;;2.83;1.60;;;;;;;;;;5083475;28;20050;-44
2023/01/16 15:32:52;;;;;;;3.67;2.00;;;;;;;;;;5086770;28;20457;-45
2023/01/16 15:35:19;;;;;;;2.90;1.55;;;;;;;;;;5081803;28;20103;-48
2023/01/16 15:37:50;;;;;;;2.63;1.77;;;;;;;;;;5073779;28;20103;-45
2023/01/16 15:40:26;;;;;;;3.75;2.15;;;;;;;;;;5078295;28;20812;-46
2023/01/16 15:48:40;;;;;;;2.67;1.60;;;;;;;;;;5085583;28;20069;-48
2023/01/16 15:51:10;;;;;;;2.67;1.40;;;;;;;;;;5081406;28;20020;-45
2023/01/16 15:53:42;;;;;;;3.05;1.67;;;;;;;;;;5083048;28;20032;-45
2023/01/16 15:56:11;;;;;;;1.95;1.27;;;;;;;;;;5086660;28;20442;-46
2023/01/16 15:58:37;;;;;;;2.25;1.45;;;;;;;;;;5080627;28;20111;-45
2023/01/16 16:01:06;;;;;;;1.63;1.30;;;;;;;;;;5083814;28;20111;-45
2023/01/16 16:03:39;;;;;;;1.65;1.05;;;;;;;;;;5085058;28;20028;-48
2023/01/16 16:06:06;;;;;;;3.13;1.73;;;;;;;;;;5085120;28;20028;-45
2023/01/16 16:08:36;;;;;;;2.05;1.60;;;;;;;;;;5086946;28;20444;-46
2023/01/16 16:13:49;;;;;;;2.72;1.70;;;;;;;;;;5085774;28;20600;-45
2023/01/16 16:19:08;;;;;;;4.93;1.75;;;;;;;;;;5085210;28;20113;-46
2023/01/16 16:22:47;;;;;;;2.47;1.30;;;;;;;;;;5090238;28;20641;-46
2023/01/16 16:24:35;;;;;;;2.90;1.60;;;;;;;;;;5086995;28;20028;-45
2023/01/16 16:27:08;;;;;;;3.40;1.60;;;;;;;;;;5089285;28;20039;-45
2023/01/16 16:29:35;;;;;;;1.83;1.48;;;;;;;;;;5088796;28;20043;-48
2023/01/16 16:32:02;;;;;;;1.55;1.27;;;;;;;;;;5086493;28;20028;-46
2023/01/16 16:34:29;;;;;;;2.13;1.42;;;;;;;;;;5087230;28;20077;-46
2023/01/16 16:36:57;;;;;;;1.77;1.20;;;;;;;;;;5087136;28;20043;-46
2023/01/16 16:39:42;;;;;;;1.42;1.02;;;;;;;;;;5088687;28;20046;-45
2023/01/16 16:42:31;;;;;;;1.60;1.05;;;;;;;;;;5087296;28;20017;-45
2023/01/16 16:45:06;;;;;;;2.30;1.30;;;;;;;;;;5050149;28;20052;-49
2023/01/16 16:47:33;;;;;;;7.53;3.13;;;;;;;;;;5088819;28;20024;-45
2023/01/16 16:50:00;;;;;;;6.13;2.75;;;;;;;;;;5088744;28;20028;-47
2023/01/16 16:52:43;;;;;;;5.50;2.70;;;;;;;;;;5087072;28;20023;-46
2023/01/16 16:55:29;;;;;;;4.50;2.53;;;;;;;;;;5085043;28;20036;-44
2023/01/16 16:57:57;;;;;;;4.45;2.30;;;;;;;;;;5087603;28;20088;-47
2023/01/16 17:00:24;;;;;;;3.80;2.13;;;;;;;;;;5087746;28;20066;-44
2023/01/16 17:02:51;;;;;;;3.72;1.88;;;;;;;;;;5083726;28;20041;-46
2023/01/16 17:05:21;;;;;;;3.60;1.92;;;;;;;;;;5084730;28;20031;-47
2023/01/16 17:07:48;;;;;;;4.50;2.80;;;;;;;;;;5088695;28;20086;-44
2023/01/16 17:10:15;;;;;;;4.50;3.08;;;;;;;;;;5087644;28;20387;-46
2023/01/16 17:12:41;;;;;;;5.72;2.90;;;;;;;;;;5086416;28;20028;-47
2023/01/16 17:15:10;;;;;;;4.07;2.33;;;;;;;;;;5080699;28;20036;-45
2023/01/16 17:17:38;;;;;;;4.25;2.67;;;;;;;;;;5092776;28;20031;-48
2023/01/16 17:20:05;;;;;;;3.97;2.15;;;;;;;;;;5087608;28;20170;-45
2023/01/16 17:22:31;;;;;;;3.10;2.03;;;;;;;;;;5085532;28;20035;-46
2023/01/16 17:24:57;;;;;;;2.92;1.73;;;;;;;;;;5088985;28;20032;-48
2023/01/16 17:27:23;;;;;;;4.40;2.45;;;;;;;;;;5089203;28;20012;-48
2023/01/16 17:29:53;;;;;;;4.13;2.53;;;;;;;;;;5087533;28;20105;-45
2023/01/16 17:32:26;;;;;;;8.57;4.35;;;;;;;;;;5086164;28;20028;-45
2023/01/16 17:34:52;;;;;;;9.27;5.10;;;;;;;;;;5075368;28;20026;-48
2023/01/16 17:37:18;;;;;;;9.18;4.90;;;;;;;;;;5069507;28;20036;-45
2023/01/16 17:39:44;;;;;;;8.20;4.45;;;;;;;;;;5085753;28;20398;-47
2023/01/16 17:47:21;;;;;;;6.10;2.50;;;;;;;;;;5086164;28;20035;-45
2023/01/16 17:52:32;;;;;;;2.85;1.63;;;;;;;;;;5087258;28;20089;-47
2023/01/16 17:57:44;;;;;;;1.20;0.95;;;;;;;;;;5087872;28;20043;-46
2023/01/16 18:00:11;;;;;;;2.03;1.30;;;;;;;;;;5087477;28;20024;-46
2023/01/16 18:02:37;;;;;;;1.30;0.90;;;;;;;;;;5086743;28;20526;-45
2023/01/16 18:05:04;;;;;;;1.40;1.10;;;;;;;;;;5087224;28;20025;-45
2023/01/16 18:07:30;;;;;;;2.58;1.42;;;;;;;;;;5086459;28;20036;-46
2023/01/16 18:09:56;;;;;;;1.70;1.27;;;;;;;;;;5081977;28;20035;-45
2023/01/16 18:17:51;;;;;;;2.28;1.40;;;;;;;;;;5079894;28;20396;-48
2023/01/16 18:20:18;;;;;;;2.35;1.48;;;;;;;;;;5080906;28;20040;-47
2023/01/16 18:22:44;;;;;;;2.50;1.45;;;;;;;;;;5082876;28;20524;-46
2023/01/16 18:25:10;;;;;;;2.58;1.42;;;;;;;;;;5083145;28;20032;-48
2023/01/16 18:27:36;;;;;;;2.00;1.15;;;;;;;;;;5082374;28;20031;-45
2023/01/16 18:30:03;;;;;;;1.90;1.23;;;;;;;;;;5065146;28;20028;-45
2023/01/16 18:32:29;;;;;;;1.25;1.00;;;;;;;;;;5064419;28;20357;-46
2023/01/16 18:34:57;;;;;;;4.03;1.48;;;;;;;;;;5075134;28;20170;-45
2023/01/16 18:37:25;;;;;;;1.75;1.40;;;;;;;;;;5085143;28;20111;-46
2023/01/16 19:02:21;;;;;;;2.60;1.70;;;;;;;;;;5075199;28;20135;-46
2023/01/16 19:04:47;;;;;;;2.78;1.67;;;;;;;;;;5062892;28;20036;-46
2023/01/16 19:07:28;;;;;;;2.63;1.65;;;;;;;;;;5083651;28;20074;-46
2023/01/16 19:09:55;;;;;;;3.88;2.03;;;;;;;;;;5084972;28;20717;-46
2023/01/16 19:12:23;;;;;;;4.07;2.22;;;;;;;;;;5083051;28;20390;-46
2023/01/16 19:14:49;;;;;;;4.60;2.25;;;;;;;;;;5086266;28;20514;-46
2023/01/16 19:17:15;;;;;;;2.40;1.63;;;;;;;;;;5085730;28;20402;-47
2023/01/16 19:19:41;;;;;;;3.47;1.80;;;;;;;;;;5085369;28;20039;-45
2023/01/16 19:22:08;;;;;;;3.45;1.98;;;;;;;;;;5083256;28;20038;-47
2023/01/16 19:24:36;;;;;;;3.22;1.80;;;;;;;;;;5083687;28;20115;-45
2023/01/16 19:27:02;;;;;;;2.53;1.55;;;;;;;;;;5084265;28;20070;-46
2023/01/16 19:29:28;;;;;;;2.15;1.55;;;;;;;;;;5084520;28;20035;-46
2023/01/16 19:31:55;;;;;;;3.42;2.03;;;;;;;;;;5065251;28;20024;-47
2023/01/16 19:34:25;;;;;;;3.50;1.77;;;;;;;;;;5084319;28;20066;-45
2023/01/16 19:36:51;;;;;;;3.17;2.20;;;;;;;;;;5085376;28;20123;-46
2023/01/16 19:39:17;;;;;;;3.58;2.28;;;;;;;;;;5066898;28;20570;-46
2023/01/16 19:47:13;;;;;;;2.97;1.67;;;;;;;;;;5068940;28;20808;-46
2023/01/16 19:49:40;;;;;;;2.30;1.60;;;;;;;;;;5066926;28;20056;-46
2023/01/16 19:52:10;;;;;;;5.20;2.30;;;;;;;;;;5066309;28;20055;-46
2023/01/16 19:54:36;;;;;;;2.35;1.50;;;;;;;;;;5083253;28;20032;-48
2023/01/16 19:57:03;;;;;;;3.05;1.67;;;;;;;;;;5088014;28;20392;-47
2023/01/16 19:59:29;;;;;;;3.13;1.73;;;;;;;;;;5088500;28;20032;-46
2023/01/16 20:01:55;;;;;;;3.00;1.60;;;;;;;;;;5084390;28;20040;-46
2023/01/16 20:04:22;;;;;;;2.90;1.55;;;;;;;;;;5089685;28;20077;-47
2023/01/16 20:06:48;;;;;;;3.50;1.80;;;;;;;;;;5089444;28;20031;-48
2023/01/16 20:09:14;;;;;;;3.70;1.75;;;;;;;;;;5068261;28;20024;-45
2023/01/16 20:14:25;;;;;;;4.57;2.38;;;;;;;;;;5085562;28;20050;-46
2023/01/16 20:16:51;;;;;;;3.55;1.63;;;;;;;;;;5087988;28;20049;-46
2023/01/16 20:19:18;;;;;;;3.17;1.80;;;;;;;;;;5086518;28;20028;-45
2023/01/16 20:21:45;;;;;;;2.72;1.48;;;;;;;;;;5085565;28;20445;-49
2023/01/16 20:24:11;;;;;;;2.15;1.30;;;;;;;;;;5087175;28;20108;-46
2023/01/16 20:26:38;;;;;;;2.35;1.48;;;;;;;;;;5084967;28;20020;-45
2023/01/16 20:29:04;;;;;;;3.38;1.70;;;;;;;;;;5067537;28;20323;-45
2023/01/16 20:31:30;;;;;;;3.08;1.58;;;;;;;;;;5088342;28;20437;-45
2023/01/16 20:33:57;;;;;;;2.40;1.40;;;;;;;;;;5086068;28;20123;-47
2023/01/16 20:36:24;;;;;;;2.05;1.50;;;;;;;;;;5069541;28;20020;-46
2023/01/16 20:38:50;;;;;;;1.83;1.00;;;;;;;;;;5087227;28;20043;-45
2023/01/16 20:45:50;;;;;;;2.47;1.60;;;;;;;;;;5086456;28;20028;-48
2023/01/16 20:46:47;;;;;;;2.20;1.58;;;;;;;;;;5087541;28;20051;-45
2023/01/16 20:49:13;;;;;;;12.65;5.03;;;;;;;;;;5071679;28;20044;-45
2023/01/16 20:51:39;;;;;;;17.67;7.25;;;;;;;;;;5074381;28;20028;-45
2023/01/16 20:54:05;;;;;;;15.40;7.55;;;;;;;;;;5086950;28;20016;-46
2023/01/16 20:56:31;;;;;;;15.20;7.00;;;;;;;;;;5087663;28;20524;-45
2023/01/16 20:58:58;;;;;;;11.88;6.03;;;;;;;;;;5086893;28;20069;-46
2023/01/16 21:01:25;;;;;;;10.35;5.05;;;;;;;;;;5086806;28;20785;-46
2023/01/16 21:03:52;;;;;;;10.05;4.90;;;;;;;;;;5085701;28;20119;-46
2023/01/16 21:06:18;;;;;;;7.82;4.45;;;;;;;;;;5085494;28;20027;-45
2023/01/16 21:08:44;;;;;;;6.57;3.97;;;;;;;;;;5086275;28;20029;-45
2023/01/16 21:14:11;;;;;;;5.40;2.72;;;;;;;;;;5086654;28;20624;-46
2023/01/16 21:22:08;;;;;;;3.67;2.03;;;;;;;;;;5084874;28;20044;-47
2023/01/16 21:24:37;;;;;;;4.18;1.90;;;;;;;;;;5081661;28;20035;-45
2023/01/16 21:27:03;;;;;;;3.45;1.83;;;;;;;;;;5085075;28;20016;-45
2023/01/16 21:29:29;;;;;;;3.45;1.77;;;;;;;;;;5086079;28;20068;-45
2023/01/16 21:31:55;;;;;;;3.60;1.80;;;;;;;;;;5086455;28;20451;-46
2023/01/16 21:34:21;;;;;;;2.85;1.63;;;;;;;;;;5086133;28;20030;-48
2023/01/16 21:36:50;;;;;;;2.28;1.50;;;;;;;;;;5085697;28;20056;-45
2023/01/16 21:39:17;;;;;;;2.90;1.75;;;;;;;;;;5085845;28;20039;-46
2023/01/16 21:47:13;;;;;;;1.92;1.40;;;;;;;;;;5085772;28;20093;-50
2023/01/16 21:49:40;;;;;;;2.58;1.38;;;;;;;;;;5086500;28;20089;-49
2023/01/16 21:52:06;;;;;;;2.70;1.60;;;;;;;;;;5084988;28;20024;-46
2023/01/16 21:54:32;;;;;;;2.15;1.38;;;;;;;;;;5086674;28;20032;-48
2023/01/16 21:56:58;;;;;;;2.30;1.38;;;;;;;;;;5084257;28;20438;-46
2023/01/16 21:59:24;;;;;;;2.28;1.30;;;;;;;;;;5085864;28;20032;-46
2023/01/16 22:01:50;;;;;;;2.72;1.55;;;;;;;;;;5087225;28;20028;-48
2023/01/16 22:04:16;;;;;;;3.03;1.30;;;;;;;;;;5084614;28;20082;-47
2023/01/16 22:06:42;;;;;;;3.15;1.75;;;;;;;;;;5085712;28;20028;-46
2023/01/16 22:09:10;;;;;;;2.70;1.50;;;;;;;;;;5083854;28;20478;-46
2023/01/16 22:20:48;;;;;;;3.17;1.50;;;;;;;;;;5086031;28;20039;-46
2023/01/16 22:22:51;;;;;;;2.72;1.40;;;;;;;;;;5081941;28;20111;-46
2023/01/16 22:25:17;;;;;;;3.95;2.05;;;;;;;;;;5084845;28;20452;-48
2023/01/16 22:27:43;;;;;;;2.90;1.55;;;;;;;;;;5080776;28;20051;-46
2023/01/16 22:30:10;;;;;;;2.85;1.63;;;;;;;;;;5068334;28;20066;-45
2023/01/16 22:32:36;;;;;;;3.45;1.70;;;;;;;;;;5080828;28;20052;-46
2023/01/16 22:35:03;;;;;;;3.85;1.77;;;;;;;;;;5083818;28;20727;-47
2023/01/16 22:37:30;;;;;;;3.33;1.90;;;;;;;;;;5079848;28;20024;-45
2023/01/16 22:39:56;;;;;;;4.22;1.98;;;;;;;;;;5084784;28;20042;-46
2023/01/16 22:42:22;;;;;;;2.90;1.60;;;;;;;;;;5085012;28;20020;-45